CheckWX is a tool to help pilots better visualize weather data.  It is not intended as a substitute for an official pre-flight weather briefing.

05:27:35 UTC

KSBA METAR
Santa Barbara Municipal Airport
Santa Barbara, California, USA
Current

35 mins ago

KSBA 140453Z 11006KT 8SM CLR 17/14 A2990 RMK AO2 SLP125 T01720144 $
Observed
Jul-14 @ 04:53 UTC
Wind
  • 110° at 6 KTS
Visibility
8 SM
Flight Rules
VFR
Cloud Levels
  • Clear skies
Temperature
17°C / 63°F
Dewpoint
14°C / 57°F
Humidity
83%
Altimeter
29.9" Hg
Pressure
1012.52 hPa
Previous

2 hours ago

KSBA 140353Z 13004KT 5SM BR CLR 17/14 A2989 RMK AO2 SLP120 T01670144
Observed
Jul-14 @ 03:53 UTC
Wind
  • 130° at 4 KTS
Visibility
5 SM
Flight Rules
MVFR
Conditions
Mist
Cloud Levels
  • Clear skies
Temperature
17°C / 63°F
Dewpoint
14°C / 57°F
Humidity
83%
Altimeter
29.89" Hg
Pressure
1012.22 hPa
Previous

3 hours ago

KSBA 140253Z 17003KT 7SM CLR 18/15 A2988 RMK AO2 SLP117 T01830150 55004
Observed
Jul-14 @ 02:53 UTC
Wind
  • 170° at 3 KTS
Visibility
7 SM
Flight Rules
VFR
Cloud Levels
  • Clear skies
Temperature
18°C / 64°F
Dewpoint
15°C / 59°F
Humidity
83%
Altimeter
29.88" Hg
Pressure
1011.82 hPa